createdAt,value
2023-05-17T00:00:51.786Z,10.90
2023-05-17T00:03:18.462Z,10.90
2023-05-17T00:05:45.089Z,10.90
2023-05-17T00:08:11.738Z,10.80
2023-05-17T00:10:38.478Z,10.80
2023-05-17T00:13:04.994Z,10.80
2023-05-17T00:15:31.569Z,10.90
2023-05-17T00:17:58.157Z,11.00
2023-05-17T00:20:24.984Z,10.90
2023-05-17T00:22:51.562Z,11.00
2023-05-17T00:25:18.173Z,11.00
2023-05-17T00:27:45.100Z,11.00
2023-05-17T00:30:11.769Z,11.00
2023-05-17T00:32:38.418Z,11.00
2023-05-17T00:35:05.716Z,11.00
2023-05-17T00:37:32.283Z,11.00
2023-05-17T00:39:58.783Z,11.00
2023-05-17T00:42:25.341Z,10.90
2023-05-17T00:44:51.859Z,10.90
2023-05-17T00:47:18.423Z,10.90
2023-05-17T00:49:45.338Z,10.90
2023-05-17T00:52:11.976Z,10.90
2023-05-17T00:54:40.103Z,10.90
2023-05-17T00:57:08.226Z,10.90
2023-05-17T00:59:35.331Z,11.00
2023-05-17T01:02:03.355Z,11.00
2023-05-17T01:04:30.579Z,11.00
2023-05-17T01:06:57.791Z,11.00
2023-05-17T01:09:24.392Z,11.00
2023-05-17T01:13:35.257Z,11.00
2023-05-17T01:16:35.542Z,11.00
2023-05-17T01:20:52.227Z,10.90
2023-05-17T01:27:27.966Z,10.90
2023-05-17T01:30:00.237Z,11.00
2023-05-17T01:32:28.287Z,11.10
2023-05-17T01:34:54.884Z,11.10
2023-05-17T01:37:21.435Z,11.10
2023-05-17T01:39:48.230Z,11.10
2023-05-17T01:42:30.498Z,11.10
2023-05-17T01:45:49.384Z,11.10
2023-05-17T01:48:27.795Z,11.10
2023-05-17T01:50:59.002Z,11.10
2023-05-17T01:54:37.382Z,11.10
2023-05-17T01:57:06.932Z,11.10
2023-05-17T01:59:38.153Z,11.10
2023-05-17T02:02:10.960Z,11.00
2023-05-17T02:04:37.583Z,11.00
2023-05-17T02:07:04.429Z,11.00
2023-05-17T02:09:30.989Z,11.00
2023-05-17T02:11:57.547Z,11.00
2023-05-17T02:14:26.608Z,11.00
2023-05-17T02:16:53.145Z,11.00
2023-05-17T02:19:19.737Z,11.10
2023-05-17T02:21:46.366Z,11.10
2023-05-17T02:24:12.935Z,11.10
2023-05-17T02:26:42.321Z,11.00
2023-05-17T02:29:12.124Z,11.10
2023-05-17T02:31:38.653Z,11.00
2023-05-17T02:34:05.220Z,11.00
2023-05-17T02:36:31.934Z,11.10
2023-05-17T02:38:58.916Z,11.10
2023-05-17T02:41:25.462Z,11.20
2023-05-17T02:43:51.993Z,11.10
2023-05-17T02:46:21.044Z,11.20
2023-05-17T02:48:47.664Z,11.20
2023-05-17T02:51:14.227Z,11.20
2023-05-17T02:53:40.805Z,11.20
2023-05-17T02:56:07.655Z,11.20
2023-05-17T02:58:34.196Z,11.20
2023-05-17T03:01:00.701Z,11.20
2023-05-17T03:03:27.464Z,11.10
2023-05-17T03:05:54.128Z,11.10
2023-05-17T03:08:20.636Z,11.10
2023-05-17T03:10:47.281Z,11.10
2023-05-17T03:13:13.813Z,11.10
2023-05-17T03:15:40.333Z,11.00
2023-05-17T03:18:06.950Z,11.00
2023-05-17T03:20:33.588Z,11.10
2023-05-17T03:23:00.115Z,11.10
2023-05-17T03:25:26.921Z,11.10
2023-05-17T03:27:53.589Z,11.10
2023-05-17T03:30:20.286Z,11.10
2023-05-17T03:32:46.907Z,11.10
2023-05-17T03:35:13.475Z,11.20
2023-05-17T03:37:39.991Z,11.20
2023-05-17T03:40:07.549Z,11.20
2023-05-17T03:42:34.056Z,11.30
2023-05-17T03:45:00.596Z,11.20
2023-05-17T03:47:27.166Z,11.20
2023-05-17T03:49:53.710Z,11.20
2023-05-17T03:52:20.438Z,11.20
2023-05-17T03:54:48.252Z,11.30
2023-05-17T03:57:15.060Z,11.20
2023-05-17T03:59:41.658Z,11.30
2023-05-17T04:02:08.438Z,11.20
2023-05-17T04:04:35.066Z,11.30
2023-05-17T04:07:01.626Z,11.30
2023-05-17T04:09:30.237Z,11.20
2023-05-17T04:11:56.748Z,11.40
2023-05-17T04:14:23.362Z,11.30
2023-05-17T04:16:49.857Z,11.40
2023-05-17T04:19:16.439Z,11.30
2023-05-17T04:21:45.103Z,11.30
2023-05-17T04:24:11.616Z,11.40
2023-05-17T04:26:39.170Z,11.40
2023-05-17T04:29:06.133Z,11.40
2023-05-17T04:31:32.681Z,11.40
2023-05-17T04:33:59.230Z,11.60
2023-05-17T04:36:25.795Z,11.60
2023-05-17T04:38:52.333Z,11.60
2023-05-17T04:41:18.849Z,11.60
2023-05-17T04:43:45.383Z,11.70
2023-05-17T04:46:11.896Z,11.80
2023-05-17T04:48:38.485Z,11.90
2023-05-17T04:51:05.634Z,12.10
2023-05-17T04:53:32.434Z,12.10
2023-05-17T04:55:59.395Z,12.20
2023-05-17T04:58:25.930Z,12.10
2023-05-17T05:00:52.523Z,12.10
2023-05-17T05:03:19.132Z,12.10
2023-05-17T05:05:45.694Z,12.20
2023-05-17T05:08:12.287Z,12.30
2023-05-17T05:10:38.827Z,12.20
2023-05-17T05:13:05.366Z,12.30
2023-05-17T05:15:32.769Z,12.40
2023-05-17T05:17:59.436Z,12.60
2023-05-17T05:20:27.952Z,12.50
2023-05-17T05:22:56.673Z,12.60
2023-05-17T05:25:23.217Z,12.50
2023-05-17T05:27:49.760Z,12.70
2023-05-17T05:30:21.512Z,12.80
2023-05-17T05:32:49.695Z,12.70
2023-05-17T05:35:17.422Z,12.70
2023-05-17T05:37:44.978Z,12.60
2023-05-17T05:40:12.536Z,12.60
2023-05-17T05:42:39.083Z,12.70
2023-05-17T05:45:07.560Z,12.70
2023-05-17T05:47:34.217Z,12.70
2023-05-17T05:50:00.812Z,12.80
2023-05-17T05:52:27.390Z,12.90
2023-05-17T05:54:53.908Z,13.00
2023-05-17T05:57:20.434Z,13.20
2023-05-17T05:59:46.942Z,13.30
2023-05-17T06:02:13.470Z,13.50
2023-05-17T06:04:45.232Z,13.80
2023-05-17T06:07:13.903Z,13.90
2023-05-17T06:09:41.351Z,14.10
2023-05-17T06:12:08.124Z,14.10
2023-05-17T06:14:36.683Z,14.20
2023-05-17T06:17:03.384Z,14.30
2023-05-17T06:19:29.987Z,14.30
2023-05-17T06:21:56.620Z,14.20
2023-05-17T06:24:23.165Z,14.30
2023-05-17T06:26:49.769Z,14.20
2023-05-17T06:29:16.373Z,14.30
2023-05-17T06:31:42.906Z,14.30
2023-05-17T06:34:09.515Z,14.20
2023-05-17T06:36:37.611Z,14.10
2023-05-17T06:39:05.239Z,14.20
2023-05-17T06:41:31.802Z,14.00
2023-05-17T06:43:58.321Z,14.00
2023-05-17T06:46:24.924Z,14.00
2023-05-17T06:48:51.715Z,14.00
2023-05-17T06:51:18.620Z,13.90
2023-05-17T06:53:45.264Z,13.90
2023-05-17T06:56:11.807Z,14.00
2023-05-17T06:58:38.321Z,13.90
2023-05-17T07:01:05.234Z,13.90
2023-05-17T07:03:31.844Z,13.90
2023-05-17T07:05:58.488Z,13.90
2023-05-17T07:08:25.132Z,14.00
2023-05-17T07:10:52.230Z,14.10
2023-05-17T07:13:18.800Z,14.30
2023-05-17T07:15:45.672Z,14.50
2023-05-17T07:18:12.340Z,14.50
2023-05-17T07:20:38.970Z,14.70
2023-05-17T07:23:05.573Z,14.80
2023-05-17T07:25:32.099Z,15.00
2023-05-17T07:28:00.860Z,15.10
2023-05-17T07:30:27.789Z,15.30
2023-05-17T07:32:54.477Z,15.40
2023-05-17T07:35:21.932Z,15.50
2023-05-17T07:37:48.652Z,15.50
2023-05-17T07:40:15.229Z,15.60
2023-05-17T07:42:41.767Z,15.60
2023-05-17T07:45:09.374Z,15.70
2023-05-17T07:47:35.984Z,15.70
2023-05-17T07:50:04.094Z,15.70
2023-05-17T07:52:30.665Z,15.60
2023-05-17T07:54:57.288Z,15.60
2023-05-17T07:57:23.842Z,15.60
2023-05-17T07:59:50.375Z,15.60
2023-05-17T08:02:16.909Z,15.50
2023-05-17T08:04:43.517Z,15.40
2023-05-17T08:07:10.142Z,15.50
2023-05-17T08:09:36.751Z,15.40
2023-05-17T08:12:03.404Z,15.40
2023-05-17T08:14:30.013Z,15.20
2023-05-17T08:16:56.531Z,15.20
2023-05-17T08:19:23.137Z,15.30
2023-05-17T08:21:49.760Z,15.40
2023-05-17T08:24:17.220Z,15.40
2023-05-17T08:26:43.760Z,15.50
2023-05-17T08:29:10.323Z,15.50
2023-05-17T08:31:36.919Z,15.60
2023-05-17T08:34:03.585Z,15.50
2023-05-17T08:36:30.138Z,15.50
2023-05-17T08:38:56.690Z,15.60
2023-05-17T08:41:23.913Z,15.60
2023-05-17T08:43:52.205Z,15.80
2023-05-17T08:46:21.193Z,15.70
2023-05-17T08:48:51.266Z,15.60
2023-05-17T08:51:19.243Z,15.60
2023-05-17T08:53:46.795Z,15.60
2023-05-17T08:56:17.887Z,15.60
2023-05-17T09:01:18.225Z,15.20
2023-05-17T09:03:50.462Z,15.10
2023-05-17T09:06:21.673Z,15.10
2023-05-17T09:08:51.992Z,15.00
2023-05-17T09:11:32.287Z,14.80
2023-05-17T09:14:01.116Z,15.00
2023-05-17T09:16:37.723Z,15.00
2023-05-17T09:19:06.996Z,15.40
2023-05-17T09:21:33.687Z,15.50
2023-05-17T09:26:46.010Z,15.30
2023-05-17T09:29:15.383Z,15.20
2023-05-17T09:31:43.787Z,15.20
2023-05-17T09:34:10.853Z,15.20
2023-05-17T09:36:42.145Z,15.40
2023-05-17T09:39:13.935Z,15.20
2023-05-17T09:41:49.247Z,15.30
2023-05-17T09:44:16.274Z,15.40
2023-05-17T09:46:49.430Z,15.40
2023-05-17T09:49:17.558Z,15.40
2023-05-17T09:51:48.629Z,15.30
2023-05-17T09:54:16.873Z,15.50
2023-05-17T09:56:44.395Z,15.30
2023-05-17T09:59:14.464Z,15.20
2023-05-17T10:01:44.356Z,15.20
2023-05-17T10:04:12.237Z,15.10
2023-05-17T10:06:47.516Z,15.10
2023-05-17T10:09:21.732Z,15.10
2023-05-17T10:11:52.176Z,15.00
2023-05-17T10:14:26.445Z,15.00
2023-05-17T10:16:54.118Z,15.00
2023-05-17T10:19:21.418Z,14.90
2023-05-17T10:21:51.824Z,15.00
2023-05-17T10:24:23.458Z,15.20
2023-05-17T10:26:51.317Z,15.30
2023-05-17T10:29:20.314Z,15.40
2023-05-17T10:31:49.482Z,15.40
2023-05-17T10:34:18.452Z,15.40
2023-05-17T10:36:45.922Z,15.40
2023-05-17T10:39:12.844Z,15.60
2023-05-17T10:41:45.785Z,15.60
2023-05-17T10:44:15.615Z,15.60
2023-05-17T10:46:59.007Z,15.90
2023-05-17T10:49:29.794Z,16.10
2023-05-17T10:52:30.575Z,16.10
2023-05-17T10:55:00.021Z,16.20
2023-05-17T11:00:11.574Z,16.40
2023-05-17T11:02:44.228Z,16.40
2023-05-17T11:05:24.979Z,16.40
2023-05-17T11:07:51.604Z,16.20
2023-05-17T11:10:18.175Z,16.10
2023-05-17T11:12:53.139Z,16.10
2023-05-17T11:15:25.582Z,16.00
2023-05-17T11:17:56.347Z,16.00
2023-05-17T11:20:41.738Z,15.90
2023-05-17T11:23:18.035Z,15.90
2023-05-17T11:25:47.390Z,15.80
2023-05-17T11:28:21.480Z,15.80
2023-05-17T11:30:51.236Z,15.70
2023-05-17T11:33:29.825Z,15.80
2023-05-17T11:36:14.657Z,15.80
2023-05-17T11:38:41.232Z,15.70
2023-05-17T11:43:52.627Z,15.40
2023-05-17T11:46:22.290Z,15.30
2023-05-17T11:48:51.991Z,15.10
2023-05-17T11:51:21.203Z,15.00
2023-05-17T11:53:49.852Z,14.90
2023-05-17T11:56:17.735Z,14.90
2023-05-17T11:58:49.996Z,14.70
2023-05-17T12:01:16.564Z,14.70
2023-05-17T12:03:43.148Z,14.70
2023-05-17T12:06:14.758Z,14.80
2023-05-17T12:08:46.516Z,14.70
2023-05-17T12:11:16.807Z,14.60
2023-05-17T12:13:46.021Z,14.60
2023-05-17T12:16:17.594Z,14.50
2023-05-17T12:18:49.426Z,14.50
2023-05-17T12:21:17.619Z,14.50
2023-05-17T12:23:47.849Z,14.50
2023-05-17T12:26:18.893Z,14.50
2023-05-17T12:28:59.733Z,14.10
2023-05-17T12:31:43.162Z,13.80
2023-05-17T12:34:15.922Z,13.60
2023-05-17T12:36:43.706Z,13.60
2023-05-17T12:39:13.130Z,13.80
2023-05-17T12:41:40.559Z,13.90
2023-05-17T12:44:15.133Z,13.80
2023-05-17T12:46:43.836Z,13.80
2023-05-17T12:49:14.060Z,13.80
2023-05-17T12:51:42.951Z,13.90
2023-05-17T12:54:10.417Z,14.00
2023-05-17T12:56:37.013Z,14.00
2023-05-17T12:59:20.032Z,14.00
2023-05-17T13:01:55.811Z,14.20
2023-05-17T13:04:33.911Z,14.20
2023-05-17T13:07:03.954Z,14.20
2023-05-17T13:09:33.730Z,14.20
2023-05-17T13:12:06.384Z,14.20
2023-05-17T13:14:46.488Z,14.20
2023-05-17T13:17:39.725Z,14.10
2023-05-17T13:20:10.368Z,14.10
2023-05-17T13:22:45.436Z,13.90
2023-05-17T13:25:13.739Z,13.80
2023-05-17T13:27:45.912Z,13.70
2023-05-17T13:30:12.999Z,13.60
2023-05-17T13:32:39.700Z,13.60
2023-05-17T13:35:07.205Z,13.60
2023-05-17T13:37:34.947Z,13.50
2023-05-17T13:40:03.595Z,13.50
2023-05-17T13:42:31.194Z,13.40
2023-05-17T13:45:02.365Z,13.40
2023-05-17T13:47:31.672Z,13.20
2023-05-17T13:50:01.388Z,13.10
2023-05-17T13:52:28.038Z,13.10
2023-05-17T13:54:54.598Z,13.00
2023-05-17T13:57:21.101Z,13.00
2023-05-17T13:59:47.622Z,12.90
2023-05-17T14:02:14.482Z,12.80
2023-05-17T14:04:41.044Z,12.70
2023-05-17T14:07:07.877Z,12.80
2023-05-17T14:09:35.982Z,12.80
2023-05-17T14:12:02.740Z,12.80
2023-05-17T14:14:32.925Z,12.80
2023-05-17T14:17:00.717Z,12.90
2023-05-17T14:19:27.367Z,12.90
2023-05-17T14:21:54.030Z,12.70
2023-05-17T14:24:20.555Z,12.60
2023-05-17T14:26:47.332Z,12.60
2023-05-17T14:29:13.859Z,12.70
2023-05-17T14:31:40.915Z,12.80
2023-05-17T14:34:07.538Z,12.90
2023-05-17T14:36:35.666Z,12.90
2023-05-17T14:39:03.058Z,12.60
2023-05-17T14:41:29.608Z,12.70
2023-05-17T14:43:56.128Z,12.90
2023-05-17T14:46:23.344Z,12.90
2023-05-17T14:48:51.515Z,12.90
2023-05-17T14:51:19.147Z,12.80
2023-05-17T14:53:45.874Z,12.70
2023-05-17T14:56:14.457Z,12.80
2023-05-17T14:58:41.529Z,12.90
2023-05-17T15:01:08.508Z,13.00
2023-05-17T15:03:35.541Z,13.00
2023-05-17T15:06:06.307Z,12.90
2023-05-17T15:08:34.761Z,12.90
2023-05-17T15:11:01.726Z,12.80
2023-05-17T15:13:28.252Z,12.70
2023-05-17T15:15:54.772Z,12.80
2023-05-17T15:18:21.736Z,13.00
2023-05-17T15:20:48.229Z,12.90
2023-05-17T15:23:15.155Z,13.00
2023-05-17T15:25:41.820Z,13.00
2023-05-17T15:28:08.381Z,12.90
2023-05-17T15:30:34.901Z,13.10
2023-05-17T15:33:01.872Z,13.10
2023-05-17T15:35:28.590Z,13.10
2023-05-17T15:37:59.020Z,13.10
2023-05-17T15:40:25.552Z,13.30
2023-05-17T15:42:52.069Z,13.30
2023-05-17T15:45:20.606Z,13.20
2023-05-17T15:47:48.143Z,13.20
2023-05-17T15:50:15.177Z,13.10
2023-05-17T15:52:41.756Z,13.10
2023-05-17T15:55:09.645Z,13.10
2023-05-17T15:57:36.254Z,13.10
2023-05-17T16:00:04.051Z,13.10
2023-05-17T16:02:30.711Z,13.20
2023-05-17T16:04:57.230Z,13.30
2023-05-17T16:07:25.549Z,13.30
2023-05-17T16:09:52.323Z,13.10
2023-05-17T16:12:18.850Z,13.10
2023-05-17T16:14:45.612Z,13.10
2023-05-17T16:17:12.112Z,13.00
2023-05-17T16:19:38.769Z,13.10
2023-05-17T16:22:05.308Z,13.20
2023-05-17T16:24:31.822Z,13.10
2023-05-17T16:26:58.439Z,13.20
2023-05-17T16:29:24.965Z,13.20
2023-05-17T16:31:52.275Z,13.20
2023-05-17T16:34:19.007Z,13.10
2023-05-17T16:36:47.522Z,13.10
2023-05-17T16:39:14.080Z,13.00
2023-05-17T16:41:40.624Z,12.90
2023-05-17T16:44:07.195Z,12.90
2023-05-17T16:46:33.723Z,12.80
2023-05-17T16:49:00.331Z,12.80
2023-05-17T16:51:26.869Z,12.70
2023-05-17T16:53:53.477Z,12.70
2023-05-17T16:56:21.464Z,12.80
2023-05-17T16:58:47.972Z,12.80
2023-05-17T17:01:15.229Z,12.80
2023-05-17T17:03:41.852Z,12.80
2023-05-17T17:06:08.427Z,12.80
2023-05-17T17:08:34.962Z,12.80
2023-05-17T17:11:01.508Z,12.80
2023-05-17T17:13:28.015Z,12.90
2023-05-17T17:15:55.046Z,12.90
2023-05-17T17:18:21.613Z,12.90
2023-05-17T17:20:48.149Z,12.80
2023-05-17T17:23:14.890Z,12.70
2023-05-17T17:25:41.447Z,12.70
2023-05-17T17:28:08.524Z,12.70
2023-05-17T17:30:35.049Z,12.60
2023-05-17T17:33:01.716Z,12.70
2023-05-17T17:35:28.384Z,12.70
2023-05-17T17:37:54.957Z,12.70
2023-05-17T17:40:21.508Z,12.60
2023-05-17T17:42:48.054Z,12.60
2023-05-17T17:45:14.635Z,12.50
2023-05-17T17:47:41.490Z,12.50
2023-05-17T17:50:08.833Z,12.40
2023-05-17T17:52:36.473Z,12.50
2023-05-17T17:55:03.093Z,12.40
2023-05-17T17:57:31.253Z,12.40
2023-05-17T17:59:57.821Z,12.30
2023-05-17T18:02:24.636Z,12.30
2023-05-17T18:04:51.228Z,12.20
2023-05-17T18:07:17.805Z,12.10
2023-05-17T18:09:44.403Z,12.10
2023-05-17T18:12:11.050Z,12.00
2023-05-17T18:14:37.608Z,11.90
2023-05-17T18:17:04.813Z,11.90
2023-05-17T18:19:31.374Z,11.90
2023-05-17T18:21:57.916Z,11.80
2023-05-17T18:24:24.465Z,11.80
2023-05-17T18:26:51.010Z,11.70
2023-05-17T18:29:17.557Z,11.70
2023-05-17T18:31:44.232Z,11.60
2023-05-17T18:34:10.858Z,11.70
2023-05-17T18:36:37.465Z,11.70
2023-05-17T18:39:04.891Z,11.70
2023-05-17T18:41:31.670Z,11.60
2023-05-17T18:44:00.944Z,11.50
2023-05-17T18:46:29.004Z,11.30
2023-05-17T18:48:55.567Z,11.30
2023-05-17T18:51:22.205Z,11.30
2023-05-17T18:53:48.795Z,11.30
2023-05-17T18:56:21.811Z,11.20
2023-05-17T18:58:54.682Z,11.10
2023-05-17T19:01:21.323Z,11.10
2023-05-17T19:03:50.611Z,11.10
2023-05-17T19:06:18.896Z,11.10
2023-05-17T19:08:45.760Z,11.10
2023-05-17T19:11:12.322Z,11.10
2023-05-17T19:13:38.857Z,11.20
2023-05-17T19:16:05.622Z,11.30
2023-05-17T19:18:32.599Z,11.20
2023-05-17T19:20:59.255Z,11.10
2023-05-17T19:23:27.308Z,11.10
2023-05-17T19:25:54.379Z,11.10
2023-05-17T19:28:21.273Z,11.00
2023-05-17T19:30:47.835Z,11.10
2023-05-17T19:33:14.420Z,11.10
2023-05-17T19:35:40.975Z,11.20
2023-05-17T19:38:08.165Z,11.30
2023-05-17T19:40:35.476Z,11.40
2023-05-17T19:43:02.478Z,11.30
2023-05-17T19:45:29.084Z,11.10
2023-05-17T19:47:56.050Z,11.10
2023-05-17T19:50:23.734Z,11.00
2023-05-17T19:52:50.313Z,11.00
2023-05-17T19:55:21.288Z,10.90
2023-05-17T19:57:48.720Z,10.90
2023-05-17T20:00:17.034Z,10.80
2023-05-17T20:02:46.603Z,10.80
2023-05-17T20:05:16.261Z,10.80
2023-05-17T20:07:43.353Z,10.80
2023-05-17T20:10:10.570Z,10.90
2023-05-17T20:12:37.760Z,10.90
2023-05-17T20:15:05.569Z,11.00
2023-05-17T20:17:32.147Z,10.90
2023-05-17T20:19:58.711Z,10.90
2023-05-17T20:22:25.306Z,11.00
2023-05-17T20:24:51.874Z,10.90
2023-05-17T20:27:18.416Z,10.90
2023-05-17T20:29:44.911Z,10.90
2023-05-17T20:32:11.527Z,11.00
2023-05-17T20:34:38.085Z,11.00
2023-05-17T20:37:04.984Z,11.00
2023-05-17T20:39:31.520Z,11.00
2023-05-17T20:42:00.466Z,10.90
2023-05-17T20:44:27.083Z,10.90
2023-05-17T20:46:56.127Z,10.80
2023-05-17T20:49:22.661Z,10.70
2023-05-17T20:51:49.231Z,10.70
2023-05-17T20:54:15.759Z,10.70
2023-05-17T20:56:42.313Z,10.70
2023-05-17T20:59:08.863Z,10.80
2023-05-17T21:01:36.552Z,10.70
2023-05-17T21:04:03.115Z,10.70
2023-05-17T21:06:32.358Z,10.60
2023-05-17T21:09:01.463Z,10.70
2023-05-17T21:11:28.895Z,10.70
2023-05-17T21:13:57.154Z,10.70
2023-05-17T21:16:23.777Z,10.80
2023-05-17T21:18:50.417Z,10.80
2023-05-17T21:21:17.188Z,10.70
2023-05-17T21:23:43.722Z,10.80
2023-05-17T21:26:10.399Z,10.70
2023-05-17T21:28:36.932Z,10.60
2023-05-17T21:31:03.729Z,10.60
2023-05-17T21:33:31.676Z,10.60
2023-05-17T21:35:58.536Z,10.60
2023-05-17T21:38:25.306Z,10.60
2023-05-17T21:40:52.326Z,10.70
2023-05-17T21:43:18.828Z,10.80
2023-05-17T21:45:45.509Z,10.60
2023-05-17T21:48:12.109Z,10.60
2023-05-17T21:50:38.694Z,10.60
2023-05-17T21:53:05.196Z,10.60
2023-05-17T21:55:41.005Z,10.60
2023-05-17T21:58:19.796Z,10.50
2023-05-17T22:00:46.675Z,10.40
2023-05-17T22:03:13.371Z,10.50
2023-05-17T22:05:40.181Z,10.50
2023-05-17T22:08:06.743Z,10.60
2023-05-17T22:10:33.309Z,10.60
2023-05-17T22:13:01.490Z,10.60
2023-05-17T22:15:28.186Z,10.60
2023-05-17T22:17:55.133Z,10.60
2023-05-17T22:20:22.780Z,10.60
2023-05-17T22:22:49.445Z,10.60
2023-05-17T22:25:17.621Z,10.70
2023-05-17T22:27:44.923Z,10.70
2023-05-17T22:30:11.804Z,10.70
2023-05-17T22:32:39.466Z,10.70
2023-05-17T22:35:06.413Z,10.60
2023-05-17T22:37:33.232Z,10.50
2023-05-17T22:39:59.816Z,10.50
2023-05-17T22:42:26.368Z,10.50
2023-05-17T22:44:52.909Z,10.50
2023-05-17T22:47:21.965Z,10.50
2023-05-17T22:49:51.666Z,10.50
2023-05-17T22:52:18.312Z,10.50
2023-05-17T22:54:44.936Z,10.40
2023-05-17T22:57:11.538Z,10.50
2023-05-17T22:59:38.594Z,10.40
2023-05-17T23:02:05.640Z,10.50
2023-05-17T23:04:32.264Z,10.60
2023-05-17T23:07:01.366Z,10.50
2023-05-17T23:09:29.388Z,10.50
2023-05-17T23:12:04.724Z,10.40
2023-05-17T23:14:36.715Z,10.30
2023-05-17T23:17:04.445Z,10.30
2023-05-17T23:19:33.082Z,10.40
2023-05-17T23:22:03.424Z,10.40
2023-05-17T23:24:30.078Z,10.40
2023-05-17T23:26:56.957Z,10.50
2023-05-17T23:29:24.737Z,10.50
2023-05-17T23:31:51.313Z,10.50
2023-05-17T23:34:17.863Z,10.40
2023-05-17T23:36:44.412Z,10.30
2023-05-17T23:39:10.931Z,10.30
2023-05-17T23:41:37.670Z,10.30
2023-05-17T23:44:04.844Z,10.40
2023-05-17T23:46:31.647Z,10.30
2023-05-17T23:48:58.249Z,10.30
2023-05-17T23:51:24.963Z,10.30
2023-05-17T23:53:51.631Z,10.30
2023-05-17T23:56:20.346Z,10.20
2023-05-17T23:58:47.127Z,10.20
